Time;durP1;ratioP1;P1;durP2;ratioP2;P2;SDS_P1;SDS_P2;PMS_P1;PMS_P2;Temp;Humidity;BMP_temperature;BMP_pressure;BME280_temperature;BME280_humidity;BME280_pressure;Samples;Min_cycle;Max_cycle;Signal;HPM_P1;HPM_P2
2022/11/18 00:00:10;;;;;;;1.40;0.60;;;;;;;-2.34;73.85;101467.03;10583472;28;20121;-72
2022/11/18 00:05:12;;;;;;;0.52;0.50;;;;;;;-2.29;74.31;101467.31;10572803;28;20044;-72
2022/11/18 00:10:14;;;;;;;0.50;0.50;;;;;;;-2.28;73.56;101476.22;10574371;28;20079;-72
2022/11/18 00:15:21;;;;;;;1.20;0.70;;;;;;;-2.36;74.09;101460.16;10606096;28;20055;-73
2022/11/18 00:25:50;;;;;;;0.60;0.53;;;;;;;-2.41;75.16;101474.13;10592504;27;20043;-73
2022/11/18 00:30:52;;;;;;;0.80;0.70;;;;;;;-2.45;74.95;101489.75;10576709;28;20054;-72
2022/11/18 00:35:55;;;;;;;0.98;0.73;;;;;;;-2.50;75.04;101476.00;10576565;28;20044;-73
2022/11/18 00:41:05;;;;;;;0.65;0.52;;;;;;;-2.53;75.45;101470.16;10589446;28;20245;-73
2022/11/18 00:46:09;;;;;;;0.57;0.45;;;;;;;-2.54;75.60;101472.00;10596782;27;20047;-74
2022/11/18 00:51:17;;;;;;;1.42;0.80;;;;;;;-2.52;75.79;101483.41;10583639;28;20040;-72
2022/11/18 00:56:19;;;;;;;0.98;0.70;;;;;;;-2.57;75.44;101475.03;10575410;27;20039;-72
2022/11/18 01:01:21;;;;;;;1.20;0.63;;;;;;;-2.58;75.57;101470.69;10612200;28;20050;-72
2022/11/18 01:06:24;;;;;;;0.80;0.50;;;;;;;-2.58;75.72;101469.84;10592482;28;20036;-73
2022/11/18 01:16:50;;;;;;;0.93;0.60;;;;;;;-2.58;74.09;101472.53;10582465;27;20524;-73
2022/11/18 01:21:52;;;;;;;0.93;0.80;;;;;;;-2.62;74.03;101463.97;10581890;28;20036;-73
2022/11/18 01:26:54;;;;;;;1.10;0.70;;;;;;;-2.61;74.36;101468.31;10557453;28;20414;-73
2022/11/18 01:31:57;;;;;;;0.80;0.70;;;;;;;-2.61;73.52;101467.47;10596610;28;20047;-73
2022/11/18 01:36:59;;;;;;;0.70;0.70;;;;;;;-2.66;72.44;101459.13;10594575;28;20040;-73
2022/11/18 01:42:01;;;;;;;0.75;0.70;;;;;;;-2.66;72.91;101464.50;10594035;28;20040;-73
2022/11/18 01:47:03;;;;;;;0.60;0.60;;;;;;;-2.61;72.31;101462.94;10591040;28;20043;-73
2022/11/18 01:52:06;;;;;;;1.40;0.73;;;;;;;-2.57;72.57;101466.16;10586800;28;20047;-73
2022/11/18 01:57:15;;;;;;;3.53;0.80;;;;;;;-2.54;72.57;101457.72;10618409;27;20428;-73
2022/11/18 02:02:20;;;;;;;1.27;0.73;;;;;;;-2.56;72.40;101449.84;10598761;28;20048;-73
2022/11/18 02:07:22;;;;;;;1.13;0.95;;;;;;;-2.57;72.71;101458.09;10552157;28;20044;-73
2022/11/18 02:12:24;;;;;;;1.33;0.68;;;;;;;-2.55;72.67;101458.75;10570935;28;20433;-73
2022/11/18 02:17:47;;;;;;;0.70;0.70;;;;;;;-2.50;72.21;101459.03;10596594;28;20050;-73
2022/11/18 02:23:14;;;;;;;0.57;0.55;;;;;;;-2.49;72.47;101484.91;10609655;27;20048;-73
2022/11/18 02:28:53;;;;;;;1.58;0.90;;;;;;;-2.54;72.37;101468.47;10589771;28;20052;-73
2022/11/18 02:34:05;;;;;;;0.50;0.50;;;;;;;-2.60;73.07;101463.81;10572109;28;20043;-73
2022/11/18 02:39:13;;;;;;;2.05;0.77;;;;;;;-2.64;72.75;101459.78;10596494;27;20047;-73
2022/11/18 02:44:21;;;;;;;1.00;0.90;;;;;;;-2.67;73.36;101462.81;10581063;28;20040;-72
2022/11/18 02:49:34;;;;;;;0.90;0.80;;;;;;;-2.71;74.00;101448.06;10624761;27;20044;-73
2022/11/18 02:54:38;;;;;;;1.73;1.15;;;;;;;-2.72;74.47;101449.91;10580794;28;20038;-73
2022/11/18 02:59:45;;;;;;;1.92;1.10;;;;;;;-2.67;74.90;101446.69;10588413;28;20051;-73
2022/11/18 03:04:48;;;;;;;0.80;0.80;;;;;;;-2.67;74.98;101441.31;10590180;28;20036;-73
2022/11/18 03:09:51;;;;;;;1.50;0.90;;;;;;;-2.62;74.79;101444.31;10551031;28;20528;-73
2022/11/18 03:15:15;;;;;;;1.38;1.05;;;;;;;-2.53;73.80;101433.38;10566054;27;20051;-73
2022/11/18 03:20:25;;;;;;;1.15;1.05;;;;;;;-2.48;73.53;101440.88;10572432;28;20035;-73
2022/11/18 03:25:33;;;;;;;1.00;0.73;;;;;;;-2.48;73.10;101443.59;10567900;28;20036;-73
2022/11/18 03:30:38;;;;;;;1.48;0.82;;;;;;;-2.54;73.49;101449.66;10572951;27;20059;-73
2022/11/18 03:35:43;;;;;;;3.97;1.00;;;;;;;-2.56;73.71;101422.97;10618482;27;20485;-73
2022/11/18 03:40:49;;;;;;;1.25;1.15;;;;;;;-2.55;73.66;101430.03;10624181;27;20044;-73
2022/11/18 03:45:55;;;;;;;1.13;1.02;;;;;;;-2.55;74.15;101435.41;10562230;28;20062;-74
2022/11/18 03:51:05;;;;;;;0.52;0.47;;;;;;;-2.52;73.84;101418.09;10589199;28;20494;-75
2022/11/18 03:56:17;;;;;;;1.40;0.70;;;;;;;-2.53;74.07;101408.34;10592813;28;20051;-75
2022/11/18 04:01:35;;;;;;;0.93;0.93;;;;;;;-2.52;74.79;101423.47;10610894;28;20044;-75
2022/11/18 04:06:49;;;;;;;1.02;0.95;;;;;;;-2.58;74.10;101424.16;10592022;28;20044;-74
2022/11/18 04:12:02;;;;;;;1.92;1.25;;;;;;;-2.62;74.42;101433.56;10626742;28;20040;-74
2022/11/18 04:17:10;;;;;;;1.83;0.93;;;;;;;-2.62;74.90;101420.97;10614155;28;20038;-74
2022/11/18 04:22:13;;;;;;;1.08;0.77;;;;;;;-2.66;74.54;101416.13;10586316;28;20043;-74
2022/11/18 04:27:15;;;;;;;1.00;0.90;;;;;;;-2.65;74.12;101420.50;10613053;28;20045;-74
2022/11/18 04:32:17;;;;;;;1.52;1.20;;;;;;;-2.73;73.96;101418.69;10582051;28;20494;-74
2022/11/18 04:37:20;;;;;;;0.88;0.85;;;;;;;-2.79;74.35;101441.69;10605014;28;20047;-75
2022/11/18 04:42:22;;;;;;;0.95;0.85;;;;;;;-2.87;74.44;101414.91;10549023;28;20044;-75
2022/11/18 04:47:24;;;;;;;1.33;1.23;;;;;;;-2.90;74.91;101415.25;10580888;28;20036;-74
2022/11/18 04:52:26;;;;;;;1.02;1.00;;;;;;;-2.92;75.52;101411.91;10583580;28;20477;-74
2022/11/18 04:57:28;;;;;;;1.85;0.75;;;;;;;-2.93;75.90;101398.66;10586215;28;20035;-74
2022/11/18 05:02:30;;;;;;;2.88;1.15;;;;;;;-2.90;75.98;101398.31;10598019;28;20425;-73
2022/11/18 05:07:33;;;;;;;0.45;0.45;;;;;;;-2.88;75.78;101399.78;10567557;28;20032;-74
2022/11/18 05:12:47;;;;;;;0.90;0.90;;;;;;;-2.85;75.97;101388.69;10609747;28;20056;-74
2022/11/18 05:17:51;;;;;;;0.57;0.57;;;;;;;-2.85;75.87;101387.88;10599295;28;20048;-73
2022/11/18 05:22:54;;;;;;;0.22;0.22;;;;;;;-2.79;76.27;101404.09;10615187;28;20052;-74
2022/11/18 05:27:56;;;;;;;2.15;0.90;;;;;;;-2.82;77.08;101390.19;10558231;28;20059;-75
2022/11/18 05:33:23;;;;;;;0.47;0.47;;;;;;;-2.86;77.43;101388.88;10578287;28;20645;-74
2022/11/18 05:38:26;;;;;;;1.33;0.88;;;;;;;-2.87;77.46;101403.31;10590444;28;20045;-74
2022/11/18 05:43:30;;;;;;;0.43;0.43;;;;;;;-2.88;77.81;101407.84;10610901;27;20047;-74
2022/11/18 05:48:57;;;;;;;0.43;0.40;;;;;;;-2.86;78.31;101410.34;10606510;28;20421;-75
2022/11/18 05:54:02;;;;;;;1.42;0.75;;;;;;;-2.87;77.72;101424.78;10582434;28;20458;-74
2022/11/18 05:59:05;;;;;;;0.98;0.80;;;;;;;-2.86;77.88;101416.56;10576174;28;20035;-74
2022/11/18 06:04:25;;;;;;;0.77;0.70;;;;;;;-2.86;78.18;101405.81;10610727;28;20058;-74
2022/11/18 06:09:30;;;;;;;2.00;0.57;;;;;;;-2.87;77.86;101408.69;10611665;28;20047;-74
2022/11/18 06:14:41;;;;;;;1.05;0.75;;;;;;;-2.88;77.83;101421.28;10612217;28;20031;-74
2022/11/18 06:19:44;;;;;;;0.77;0.52;;;;;;;-2.89;78.45;101422.28;10571027;28;20036;-75
2022/11/18 06:24:46;;;;;;;3.22;0.70;;;;;;;-2.90;78.50;101422.47;10607111;27;20040;-75
2022/11/18 06:29:48;;;;;;;1.65;0.80;;;;;;;-2.89;78.31;101435.72;10575328;28;20524;-74
2022/11/18 06:34:51;;;;;;;0.70;0.70;;;;;;;-2.89;78.45;101421.47;10612586;28;20047;-75
2022/11/18 06:39:53;;;;;;;1.52;0.95;;;;;;;-2.85;78.48;101415.56;10593478;28;20134;-73
2022/11/18 06:45:21;;;;;;;3.23;1.20;;;;;;;-2.83;78.75;101410.00;10608467;27;20414;-73
2022/11/18 06:50:23;;;;;;;3.78;1.30;;;;;;;-2.82;78.68;101411.69;10587114;28;20054;-74
2022/11/18 06:55:25;;;;;;;0.85;0.63;;;;;;;-2.84;78.83;101403.78;10568890;28;20038;-74
2022/11/18 07:00:27;;;;;;;1.83;0.95;;;;;;;-2.86;79.12;101389.72;10576242;28;20078;-74
2022/11/18 07:05:58;;;;;;;1.10;0.70;;;;;;;-2.85;79.43;101415.56;10609614;28;20054;-74
2022/11/18 07:11:01;;;;;;;2.75;1.40;;;;;;;-2.81;79.47;101397.22;10588580;28;20088;-74
2022/11/18 07:16:28;;;;;;;2.58;1.15;;;;;;;-2.80;79.40;101410.50;10616535;27;20043;-73
2022/11/18 07:21:30;;;;;;;1.52;1.35;;;;;;;-2.80;79.26;101410.50;10586094;28;20449;-73
2022/11/18 07:26:33;;;;;;;0.70;0.70;;;;;;;-2.79;79.96;101416.69;10583924;28;20035;-74
2022/11/18 07:31:39;;;;;;;2.00;0.98;;;;;;;-2.81;80.43;101416.88;10588329;27;20060;-74
2022/11/18 07:36:42;;;;;;;1.27;0.80;;;;;;;-2.80;80.46;101415.84;10568893;28;20414;-74
2022/11/18 07:41:44;;;;;;;2.30;0.60;;;;;;;-2.81;79.32;101435.66;10567839;28;20040;-74
2022/11/18 07:46:48;;;;;;;0.52;0.47;;;;;;;-2.79;79.32;101433.66;10592561;28;20035;-73
2022/11/18 07:51:51;;;;;;;2.60;1.13;;;;;;;-2.78;79.13;101435.34;10611410;28;20061;-73
2022/11/18 07:56:54;;;;;;;1.30;1.10;;;;;;;-2.76;78.98;101478.97;10611018;28;20031;-74
2022/11/18 08:01:58;;;;;;;2.95;0.90;;;;;;;-2.76;78.03;101441.38;10611060;28;20082;-74
2022/11/18 08:07:01;;;;;;;1.38;0.88;;;;;;;-2.78;77.02;101424.59;10611317;28;20061;-73
2022/11/18 08:12:03;;;;;;;0.57;0.47;;;;;;;-2.75;76.19;101440.38;10611310;28;20058;-74
2022/11/18 08:17:05;;;;;;;1.23;0.50;;;;;;;-2.75;76.33;101436.84;10610404;28;20510;-74
2022/11/18 08:22:08;;;;;;;0.88;0.47;;;;;;;-2.69;76.22;101421.88;10610849;28;20510;-74
2022/11/18 08:27:10;;;;;;;2.20;1.00;;;;;;;-2.65;75.87;101407.91;10591988;28;20052;-73
2022/11/18 08:32:13;;;;;;;1.58;1.38;;;;;;;-2.63;76.06;101450.72;10593825;28;20043;-73
2022/11/18 08:37:15;;;;;;;6.70;1.23;;;;;;;-2.63;75.98;101435.41;10617449;28;20054;-73
2022/11/18 08:42:21;;;;;;;1.08;0.40;;;;;;;-2.62;76.31;101423.66;10618175;28;20054;-73
2022/11/18 08:47:23;;;;;;;0.95;0.60;;;;;;;-2.64;76.00;101424.84;10576430;28;21515;-74
2022/11/18 08:52:25;;;;;;;1.20;1.05;;;;;;;-2.67;75.28;101419.84;10614406;27;20527;-74
2022/11/18 08:57:28;;;;;;;3.75;0.95;;;;;;;-2.69;75.97;101428.06;10604538;28;20533;-74
2022/11/18 09:02:30;;;;;;;1.38;0.95;;;;;;;-2.70;76.27;101431.78;10617723;28;20036;-73
2022/11/18 09:07:32;;;;;;;1.23;0.73;;;;;;;-2.72;76.67;101432.97;10616560;27;20501;-73
2022/11/18 09:12:39;;;;;;;0.40;0.40;;;;;;;-2.68;77.49;101420.84;10641872;27;20043;-74
2022/11/18 09:17:42;;;;;;;2.03;1.23;;;;;;;-2.68;77.26;101418.16;10659542;27;20074;-74
2022/11/18 09:22:44;;;;;;;0.93;0.80;;;;;;;-2.62;77.39;101420.97;10600960;28;20047;-74
2022/11/18 09:27:51;;;;;;;0.32;0.30;;;;;;;-2.62;77.69;101423.66;10617099;28;20058;-74
2022/11/18 09:32:53;;;;;;;2.80;1.30;;;;;;;-2.56;77.91;101432.88;10601821;28;20426;-76
2022/11/18 09:37:59;;;;;;;2.80;1.45;;;;;;;-2.63;77.96;101421.16;10619360;28;20441;-74
2022/11/18 09:43:15;;;;;;;3.55;1.50;;;;;;;-2.63;78.64;101421.16;10616795;28;20055;-72
2022/11/18 09:48:19;;;;;;;1.10;1.00;;;;;;;-2.63;78.33;101438.09;10634206;27;20048;-73
2022/11/18 09:53:24;;;;;;;1.30;0.88;;;;;;;-2.63;78.16;101415.78;10600457;28;20040;-74
2022/11/18 09:58:35;;;;;;;1.25;1.00;;;;;;;-2.67;77.98;101414.47;10628784;27;20058;-74
2022/11/18 10:03:37;;;;;;;1.20;0.60;;;;;;;-2.71;77.80;101413.16;10598529;27;20040;-74
2022/11/18 10:08:45;;;;;;;4.20;1.00;;;;;;;-2.69;77.24;101408.44;10586368;27;20039;-74
2022/11/18 10:14:29;;;;;;;0.57;0.35;;;;;;;-2.67;76.16;101403.72;10601670;27;20453;-79
2022/11/18 10:19:34;;;;;;;1.50;0.80;;;;;;;-2.71;74.46;101437.31;10557163;28;20046;-74
2022/11/18 10:24:41;;;;;;;1.40;1.30;;;;;;;-2.80;73.82;101402.44;10602372;28;20541;-74
2022/11/18 10:29:45;;;;;;;0.57;0.57;;;;;;;-2.86;73.43;101397.75;10599743;27;20059;-73
2022/11/18 10:34:55;;;;;;;0.73;0.70;;;;;;;-2.86;73.57;101413.03;10569369;28;20406;-73
2022/11/18 10:40:00;;;;;;;0.20;0.20;;;;;;;-2.83;73.47;101410.84;10580633;28;20054;-73
2022/11/18 10:45:21;;;;;;;0.90;0.70;;;;;;;-2.79;73.80;101382.63;10570302;28;20043;-73
2022/11/18 10:50:43;;;;;;;1.45;0.55;;;;;;;-2.86;73.36;101386.19;10610717;28;20040;-74
2022/11/18 10:55:56;;;;;;;0.57;0.30;;;;;;;-2.90;72.95;101376.81;10602851;28;20046;-74
2022/11/18 11:01:17;;;;;;;0.50;0.50;;;;;;;-2.96;72.78;101401.66;10607971;27;20055;-74
2022/11/18 11:06:26;;;;;;;0.75;0.70;;;;;;;-3.02;73.26;101392.47;10615150;28;20047;-75
2022/11/18 11:11:43;;;;;;;1.30;0.70;;;;;;;-3.07;73.58;101384.09;10608083;28;20047;-75
2022/11/18 11:16:56;;;;;;;0.95;0.70;;;;;;;-3.10;73.74;101387.97;10598108;28;20038;-75
2022/11/18 11:21:58;;;;;;;3.85;0.50;;;;;;;-3.11;73.46;101385.47;10613594;28;20493;-75
2022/11/18 11:27:22;;;;;;;0.80;0.70;;;;;;;-3.09;73.65;101394.19;10588316;28;20040;-75
2022/11/18 11:32:33;;;;;;;0.35;0.32;;;;;;;-3.09;74.07;101408.44;10590159;28;20075;-75
2022/11/18 11:37:50;;;;;;;1.63;0.40;;;;;;;-3.08;74.17;101396.69;10571544;28;20036;-74
2022/11/18 11:43:04;;;;;;;1.58;0.63;;;;;;;-3.10;74.43;101397.88;10576818;28;20046;-75
2022/11/18 11:48:34;;;;;;;0.63;0.52;;;;;;;-3.06;74.63;101404.56;10591188;28;20043;-73
2022/11/18 11:53:48;;;;;;;0.50;0.50;;;;;;;-3.07;74.51;101413.63;10593440;28;20035;-74
2022/11/18 11:59:00;;;;;;;2.03;0.82;;;;;;;-3.03;75.11;101406.91;10614195;28;20047;-73
2022/11/18 12:04:11;;;;;;;1.25;0.75;;;;;;;-3.02;74.96;101405.88;10599905;28;20062;-73
2022/11/18 12:09:45;;;;;;;0.50;0.43;;;;;;;-2.99;75.67;101394.78;10619714;28;20047;-72
2022/11/18 12:14:49;;;;;;;0.65;0.63;;;;;;;-2.91;76.03;101399.31;10607085;28;20047;-72
2022/11/18 12:19:52;;;;;;;3.42;1.02;;;;;;;-2.92;75.92;101413.75;10618391;27;20051;-73
2022/11/18 12:24:54;;;;;;;1.35;0.60;;;;;;;-2.93;76.22;101401.34;10594050;28;20139;-73
2022/11/18 12:30:00;;;;;;;1.10;0.98;;;;;;;-2.88;76.60;101382.84;10615918;28;20514;-72
2022/11/18 12:35:20;;;;;;;0.50;0.50;;;;;;;-2.86;76.90;101400.44;10603532;28;20035;-72
2022/11/18 12:40:38;;;;;;;2.17;1.20;;;;;;;-2.84;76.73;101403.78;10581344;28;20051;-75
2022/11/18 12:45:43;;;;;;;1.20;0.85;;;;;;;-2.84;76.66;101433.34;10589803;28;20044;-74
2022/11/18 12:50:47;;;;;;;0.47;0.47;;;;;;;-2.84;76.62;101405.66;10576233;28;20063;-73
2022/11/18 12:55:49;;;;;;;0.75;0.60;;;;;;;-2.86;77.35;101402.31;10590607;27;20039;-73
2022/11/18 13:01:09;;;;;;;0.63;0.63;;;;;;;-2.85;76.81;101415.56;10647928;27;20525;-74
2022/11/18 13:06:31;;;;;;;0.77;0.77;;;;;;;-2.83;77.04;101393.88;10589769;28;20053;-74
2022/11/18 13:11:49;;;;;;;1.35;0.60;;;;;;;-2.86;76.97;101421.94;10615387;27;20050;-73
2022/11/18 13:27:48;;;;;;;1.05;0.68;;;;;;;-2.80;77.11;101410.50;10618344;27;20386;-73
2022/11/18 13:32:52;;;;;;;0.75;0.70;;;;;;;-2.83;76.83;101420.75;10614624;27;20047;-73
2022/11/18 13:37:58;;;;;;;0.50;0.50;;;;;;;-2.84;77.38;101413.69;10602296;28;20055;-73
2022/11/18 13:43:00;;;;;;;1.73;0.85;;;;;;;-2.87;77.71;101401.47;10550334;27;20055;-73
2022/11/18 13:48:08;;;;;;;1.83;1.13;;;;;;;-2.90;77.52;101415.25;10582516;28;20051;-73
2022/11/18 13:53:47;;;;;;;1.33;1.00;;;;;;;-2.90;77.26;101409.03;10592027;28;20055;-74
2022/11/18 13:58:57;;;;;;;1.20;0.77;;;;;;;-2.94;77.90;101423.84;10595460;28;20184;-72
2022/11/18 14:04:04;;;;;;;1.33;0.65;;;;;;;-2.92;77.22;101417.28;10602008;27;20446;-73
2022/11/18 14:09:09;;;;;;;1.27;0.50;;;;;;;-2.95;77.03;101431.06;10583152;28;20379;-73
2022/11/18 14:14:29;;;;;;;1.27;0.77;;;;;;;-3.01;76.42;101433.56;10612599;28;20043;-73
2022/11/18 14:19:32;;;;;;;2.38;1.30;;;;;;;-3.07;76.17;101430.56;10586991;28;20114;-73
2022/11/18 14:24:34;;;;;;;3.38;1.17;;;;;;;-3.13;75.84;101436.63;10574144;28;20510;-72
2022/11/18 14:29:37;;;;;;;0.63;0.50;;;;;;;-3.15;75.54;101432.44;10572039;28;20040;-73
2022/11/18 14:34:39;;;;;;;1.83;1.15;;;;;;;-3.20;75.04;101459.81;10609842;27;20058;-74
2022/11/18 14:39:53;;;;;;;2.45;1.20;;;;;;;-3.23;75.23;101454.78;10596958;27;20035;-74
2022/11/18 14:44:56;;;;;;;1.45;1.00;;;;;;;-3.26;74.96;101435.50;10588868;28;20031;-73
2022/11/18 14:49:59;;;;;;;2.22;1.08;;;;;;;-3.27;74.50;101455.31;10563528;27;20125;-73
2022/11/18 14:55:03;;;;;;;2.65;1.00;;;;;;;-3.28;74.52;101449.09;10625172;27;20044;-73
2022/11/18 15:00:05;;;;;;;2.90;1.27;;;;;;;-3.27;74.39;101457.97;10593365;28;20031;-73
2022/11/18 15:05:08;;;;;;;2.72;1.15;;;;;;;-3.25;74.84;101448.75;10610141;28;20039;-73
2022/11/18 15:10:15;;;;;;;1.45;1.35;;;;;;;-3.27;74.22;101450.78;10610104;27;20215;-74
2022/11/18 15:15:46;;;;;;;0.55;0.32;;;;;;;-3.24;74.46;101466.53;10590406;28;20043;-72
2022/11/18 15:20:48;;;;;;;1.33;1.10;;;;;;;-3.24;74.37;101449.59;10609174;28;20031;-73
2022/11/18 15:25:54;;;;;;;0.40;0.40;;;;;;;-3.24;74.11;101433.47;10610749;27;20047;-73
2022/11/18 15:30:57;;;;;;;1.30;0.82;;;;;;;-3.25;74.22;101461.34;10587918;28;20059;-73
2022/11/18 15:35:59;;;;;;;1.58;0.63;;;;;;;-3.25;74.53;101435.31;10599731;28;20032;-72
2022/11/18 15:41:03;;;;;;;1.17;0.63;;;;;;;-3.26;74.26;101436.34;10597364;28;20395;-73
2022/11/18 15:51:37;;;;;;;1.07;0.97;;;;;;;-3.17;74.70;101432.59;10606846;28;20043;-72
2022/11/18 15:56:40;;;;;;;2.05;1.50;;;;;;;-3.14;74.81;101432.25;10627500;27;20039;-73
2022/11/18 16:01:45;;;;;;;1.17;0.88;;;;;;;-3.16;75.00;101436.97;10604340;28;20090;-73
2022/11/18 16:06:47;;;;;;;1.05;0.70;;;;;;;-3.20;75.20;101440.19;10602088;28;20059;-73
2022/11/18 16:17:39;;;;;;;1.95;0.70;;;;;;;-3.10;75.58;101435.47;10592478;28;20043;-73
2022/11/18 16:22:46;;;;;;;4.82;1.27;;;;;;;-3.12;75.83;101432.94;10597903;28;20040;-76
2022/11/18 16:27:55;;;;;;;0.98;0.90;;;;;;;-3.09;75.82;101431.75;10607342;28;20074;-76
2022/11/18 16:32:59;;;;;;;2.67;0.90;;;;;;;-3.06;76.17;101442.16;10573850;28;20035;-77
2022/11/18 16:38:02;;;;;;;5.25;1.20;;;;;;;-3.04;76.43;101450.88;10616157;28;20042;-76
2022/11/18 16:43:30;;;;;;;0.73;0.70;;;;;;;-3.01;76.64;101460.41;10617102;28;20036;-78
2022/11/18 16:48:36;;;;;;;2.97;1.20;;;;;;;-3.01;76.96;101447.84;10597554;28;20503;-76
2022/11/18 16:59:11;;;;;;;2.40;1.13;;;;;;;-2.99;76.95;101453.88;10598797;28;20050;-75
2022/11/18 17:04:15;;;;;;;1.17;1.05;;;;;;;-2.94;77.38;101459.56;10627703;27;20039;-75
2022/11/18 17:09:20;;;;;;;4.00;1.60;;;;;;;-2.95;77.20;101449.84;10614168;28;20051;-76
2022/11/18 17:14:22;;;;;;;2.10;1.20;;;;;;;-2.93;77.33;101463.09;10584782;28;20051;-74
2022/11/18 17:19:54;;;;;;;1.42;1.10;;;;;;;-2.94;77.09;101446.16;10605985;28;20486;-78
2022/11/18 17:24:58;;;;;;;1.20;0.90;;;;;;;-2.91;77.41;101448.47;10603395;27;20036;-76
2022/11/18 17:30:00;;;;;;;0.98;0.40;;;;;;;-2.92;77.55;101438.75;10576889;28;20070;-77
2022/11/18 17:35:03;;;;;;;1.05;0.98;;;;;;;-2.91;77.76;101464.59;10618841;28;20032;-77
2022/11/18 17:40:06;;;;;;;1.80;1.42;;;;;;;-2.92;78.18;101448.66;10617307;28;20041;-77
2022/11/18 17:45:08;;;;;;;0.68;0.68;;;;;;;-2.93;78.31;101463.94;10595597;28;20131;-75
2022/11/18 17:50:15;;;;;;;1.40;1.00;;;;;;;-2.91;78.33;101456.53;10606452;28;20060;-75
2022/11/18 17:55:17;;;;;;;1.40;1.13;;;;;;;-2.87;78.42;101468.59;10599846;28;20413;-75
2022/11/18 18:00:24;;;;;;;0.90;0.82;;;;;;;-2.86;78.82;101491.75;10604665;28;20051;-78
2022/11/18 18:05:33;;;;;;;0.75;0.50;;;;;;;-2.80;79.12;101458.00;10593856;28;20034;-76
2022/11/18 18:10:40;;;;;;;1.58;1.05;;;;;;;-2.80;78.63;101487.53;10600720;28;20425;-76
2022/11/18 18:15:42;;;;;;;1.75;1.30;;;;;;;-2.79;78.86;101471.25;10612796;27;20050;-79
2022/11/18 18:21:14;;;;;;;1.00;0.98;;;;;;;-2.77;78.51;101477.31;10558304;28;20044;-80
2022/11/18 18:26:17;;;;;;;2.50;1.20;;;;;;;-2.77;78.61;101490.75;10592877;27;20042;-78
2022/11/18 18:31:23;;;;;;;3.22;1.38;;;;;;;-2.73;78.46;101480.47;10606679;28;20044;-77
2022/11/18 18:36:29;;;;;;;0.95;0.90;;;;;;;-2.72;78.25;101484.84;10620764;27;20031;-75
2022/11/18 18:41:32;;;;;;;0.75;0.75;;;;;;;-2.69;78.22;101527.47;10600209;28;20058;-79
2022/11/18 18:46:35;;;;;;;1.60;1.20;;;;;;;-2.69;78.27;101497.09;10580560;28;20044;-78
2022/11/18 18:51:42;;;;;;;0.85;0.85;;;;;;;-2.71;77.83;101497.25;10585974;28;20039;-78
2022/11/18 18:56:48;;;;;;;0.40;0.40;;;;;;;-2.72;78.19;101535.03;10565646;27;20031;-76
2022/11/18 19:07:23;;;;;;;2.13;0.75;;;;;;;-2.72;78.18;101500.97;10612869;28;20043;-74
2022/11/18 19:12:50;;;;;;;0.50;0.30;;;;;;;-2.74;78.47;101498.44;10605479;28;20050;-77
2022/11/18 19:17:55;;;;;;;2.30;1.20;;;;;;;-2.74;78.04;101530.69;10563253;28;20042;-77
2022/11/18 19:23:02;;;;;;;0.85;0.80;;;;;;;-2.75;78.27;101507.50;10611993;28;20053;-76
2022/11/18 19:28:07;;;;;;;0.70;0.63;;;;;;;-2.75;77.81;101510.19;10597785;27;20048;-79
2022/11/18 19:33:11;;;;;;;1.20;1.10;;;;;;;-2.76;77.77;101500.47;10610846;28;20122;-76
2022/11/18 19:38:14;;;;;;;1.30;0.93;;;;;;;-2.76;77.77;101507.69;10610863;27;20058;-79
2022/11/18 19:43:17;;;;;;;1.05;0.93;;;;;;;-2.77;77.64;101520.28;10606976;28;20063;-80
2022/11/18 19:48:19;;;;;;;1.17;0.90;;;;;;;-2.79;78.03;101503.47;10595625;28;20044;-79
2022/11/18 19:53:31;;;;;;;1.33;0.88;;;;;;;-2.81;77.72;101527.00;10596638;28;20062;-76
2022/11/18 19:58:34;;;;;;;1.80;1.25;;;;;;;-2.79;77.75;101529.50;10614706;28;20120;-77
2022/11/18 20:03:36;;;;;;;1.23;0.90;;;;;;;-2.78;77.61;101539.22;10592704;28;20054;-79
2022/11/18 20:08:40;;;;;;;1.02;0.93;;;;;;;-2.81;78.07;101548.47;10615367;28;20039;-78
2022/11/18 20:13:43;;;;;;;1.10;1.00;;;;;;;-2.82;78.11;101541.44;10585417;28;20048;-75
2022/11/18 20:18:48;;;;;;;2.75;1.35;;;;;;;-2.82;77.99;101525.31;10609170;28;20057;-78
2022/11/18 20:23:59;;;;;;;1.63;1.30;;;;;;;-2.81;78.12;101532.34;10586800;28;20031;-78
2022/11/18 20:29:11;;;;;;;1.27;0.90;;;;;;;-2.79;78.19;101538.41;10613957;27;20607;-76
2022/11/18 20:34:13;;;;;;;1.88;0.90;;;;;;;-2.83;78.25;101571.16;10606409;28;20043;-75
2022/11/18 20:39:16;;;;;;;1.17;0.60;;;;;;;-2.80;77.26;101576.16;10607318;28;20044;-76
2022/11/18 20:44:19;;;;;;;0.70;0.70;;;;;;;-2.80;77.32;101574.31;10592606;28;20056;-74
2022/11/18 20:49:21;;;;;;;1.10;1.00;;;;;;;-2.79;77.52;101567.94;10619950;27;20040;-76
2022/11/18 20:54:23;;;;;;;1.73;0.82;;;;;;;-2.80;77.36;101573.47;10611462;28;20417;-75
2022/11/18 20:59:26;;;;;;;1.00;0.65;;;;;;;-2.78;77.25;101566.97;10613677;28;20513;-75
2022/11/18 21:04:29;;;;;;;0.65;0.60;;;;;;;-2.79;77.33;101554.50;10608152;28;20043;-75
2022/11/18 21:09:32;;;;;;;2.00;1.30;;;;;;;-2.78;77.12;101574.16;10614581;28;20044;-76
2022/11/18 21:14:34;;;;;;;1.15;0.47;;;;;;;-2.79;77.20;101580.53;10550275;28;20043;-75
2022/11/18 21:19:37;;;;;;;0.47;0.47;;;;;;;-2.80;77.17;101603.03;10573705;28;20092;-75
2022/11/18 21:24:44;;;;;;;0.68;0.45;;;;;;;-2.84;77.04;101597.16;10622488;27;20591;-77
2022/11/18 21:29:50;;;;;;;0.75;0.65;;;;;;;-2.85;77.04;101583.91;10621663;28;20043;-78
2022/11/18 21:34:53;;;;;;;0.60;0.60;;;;;;;-2.89;77.17;101610.28;10634677;27;20057;-77
2022/11/18 21:39:55;;;;;;;0.82;0.80;;;;;;;-2.92;75.97;101621.34;10582658;27;20038;-76
2022/11/18 21:44:58;;;;;;;1.67;1.27;;;;;;;-2.93;75.84;101597.38;10624389;27;20085;-78
2022/11/18 21:50:01;;;;;;;1.33;1.23;;;;;;;-2.95;75.34;101632.44;10602162;28;20051;-74
2022/11/18 21:55:08;;;;;;;1.13;0.90;;;;;;;-2.98;75.46;101591.63;10585331;27;20040;-74
2022/11/18 22:00:11;;;;;;;2.38;1.00;;;;;;;-3.00;74.75;101632.09;10585221;27;20046;-74
2022/11/18 22:05:14;;;;;;;1.55;0.88;;;;;;;-3.02;74.83;101620.69;10628286;27;20051;-73
2022/11/18 22:10:17;;;;;;;1.70;0.50;;;;;;;-3.04;74.46;101620.00;10594149;28;20042;-76
2022/11/18 22:15:23;;;;;;;1.13;0.98;;;;;;;-3.08;74.05;101653.56;10592666;28;20040;-74
2022/11/18 22:20:26;;;;;;;1.17;1.05;;;;;;;-3.10;74.27;101634.13;10608336;28;20062;-73
2022/11/18 22:25:28;;;;;;;1.60;0.90;;;;;;;-3.12;75.09;101628.09;10609449;28;20046;-75
2022/11/18 22:31:05;;;;;;;1.38;0.68;;;;;;;-3.13;75.03;101634.44;10614455;27;20516;-76
2022/11/18 22:36:11;;;;;;;1.05;0.90;;;;;;;-3.17;76.07;101643.81;10589104;28;20054;-76
2022/11/18 22:46:36;;;;;;;1.42;1.00;;;;;;;-3.15;75.75;101621.16;10615289;27;20039;-74
2022/11/18 22:51:39;;;;;;;1.20;0.95;;;;;;;-3.13;75.84;101618.31;10610398;28;20146;-75
2022/11/18 22:56:42;;;;;;;0.57;0.52;;;;;;;-3.13;76.43;101624.53;10603911;28;20051;-75
2022/11/18 23:01:52;;;;;;;2.95;1.10;;;;;;;-3.09;75.90;101635.78;10602966;28;20791;-75
2022/11/18 23:06:54;;;;;;;3.83;1.25;;;;;;;-3.08;75.36;101626.72;10580064;28;20385;-76
2022/11/18 23:17:17;;;;;;;2.03;1.05;;;;;;;-3.13;75.28;101624.53;10596027;28;20532;-76
2022/11/18 23:22:19;;;;;;;2.15;1.33;;;;;;;-3.12;74.84;101638.81;10584443;28;20035;-76
2022/11/18 23:27:22;;;;;;;0.80;0.80;;;;;;;-3.14;74.35;101643.50;10589519;28;20044;-73
2022/11/18 23:32:25;;;;;;;1.73;1.52;;;;;;;-3.16;74.62;101638.28;10604091;27;20394;-75
2022/11/18 23:37:27;;;;;;;1.65;0.88;;;;;;;-3.13;74.57;101629.06;10604226;28;20040;-73
2022/11/18 23:42:55;;;;;;;1.70;1.15;;;;;;;-3.15;74.37;101647.19;10592076;28;20040;-73
2022/11/18 23:48:01;;;;;;;0.70;0.70;;;;;;;-3.13;73.85;101640.63;10611665;28;20049;-73
2022/11/18 23:53:03;;;;;;;0.35;0.35;;;;;;;-3.16;73.50;101657.06;10620296;27;20384;-73
2022/11/18 23:58:05;;;;;;;0.85;0.82;;;;;;;-3.19;73.98;101651.22;10607498;28;20051;-74
